sensor_id;sensor_type;location;lat;lon;timestamp;temperature;humidity
17053;DHT22;8643;48.824;11.422;2022-12-07T00:01:47;2.70;99.90
17053;DHT22;8643;48.824;11.422;2022-12-07T00:04:17;2.70;99.90
17053;DHT22;8643;48.824;11.422;2022-12-07T00:06:50;2.80;99.90
17053;DHT22;8643;48.824;11.422;2022-12-07T00:09:20;2.80;99.90
17053;DHT22;8643;48.824;11.422;2022-12-07T00:11:49;2.80;99.90
17053;DHT22;8643;48.824;11.422;2022-12-07T00:14:20;2.70;99.90
17053;DHT22;8643;48.824;11.422;2022-12-07T00:19:20;2.60;99.90
17053;DHT22;8643;48.824;11.422;2022-12-07T00:21:48;2.60;99.90
17053;DHT22;8643;48.824;11.422;2022-12-07T00:24:16;2.50;99.90
17053;DHT22;8643;48.824;11.422;2022-12-07T00:26:45;2.50;99.90
17053;DHT22;8643;48.824;11.422;2022-12-07T00:29:15;2.40;99.90
17053;DHT22;8643;48.824;11.422;2022-12-07T00:31:45;2.50;99.90
17053;DHT22;8643;48.824;11.422;2022-12-07T00:34:18;2.40;99.90
17053;DHT22;8643;48.824;11.422;2022-12-07T00:36:48;2.50;99.90
17053;DHT22;8643;48.824;11.422;2022-12-07T00:39:17;2.50;99.90
17053;DHT22;8643;48.824;11.422;2022-12-07T00:44:14;2.60;99.90
17053;DHT22;8643;48.824;11.422;2022-12-07T00:46:43;2.60;99.90
17053;DHT22;8643;48.824;11.422;2022-12-07T00:49:12;2.60;99.90
17053;DHT22;8643;48.824;11.422;2022-12-07T00:54:11;2.50;99.90
17053;DHT22;8643;48.824;11.422;2022-12-07T00:59:12;2.50;99.90
17053;DHT22;8643;48.824;11.422;2022-12-07T01:01:42;2.60;99.90
17053;DHT22;8643;48.824;11.422;2022-12-07T01:04:10;2.50;99.90
17053;DHT22;8643;48.824;11.422;2022-12-07T01:06:39;2.60;99.90
17053;DHT22;8643;48.824;11.422;2022-12-07T01:09:08;2.60;99.90
17053;DHT22;8643;48.824;11.422;2022-12-07T01:11:37;2.60;99.90
17053;DHT22;8643;48.824;11.422;2022-12-07T01:19:03;2.60;99.90
17053;DHT22;8643;48.824;11.422;2022-12-07T01:21:33;2.50;99.90
17053;DHT22;8643;48.824;11.422;2022-12-07T01:24:06;2.60;99.90
17053;DHT22;8643;48.824;11.422;2022-12-07T01:29:07;2.50;99.90
17053;DHT22;8643;48.824;11.422;2022-12-07T01:31:36;2.40;99.90
17053;DHT22;8643;48.824;11.422;2022-12-07T01:34:04;2.40;99.90
17053;DHT22;8643;48.824;11.422;2022-12-07T01:36:34;2.40;99.90
17053;DHT22;8643;48.824;11.422;2022-12-07T01:39:05;2.30;99.90
17053;DHT22;8643;48.824;11.422;2022-12-07T01:41:40;2.30;99.90
17053;DHT22;8643;48.824;11.422;2022-12-07T01:44:17;2.40;99.90
17053;DHT22;8643;48.824;11.422;2022-12-07T01:46:49;2.50;99.90
17053;DHT22;8643;48.824;11.422;2022-12-07T01:49:26;2.40;99.90
17053;DHT22;8643;48.824;11.422;2022-12-07T01:52:04;2.20;99.90
17053;DHT22;8643;48.824;11.422;2022-12-07T01:54:39;5.80;99.90
17053;DHT22;8643;48.824;11.422;2022-12-07T01:57:10;2.30;99.90
17053;DHT22;8643;48.824;11.422;2022-12-07T02:02:15;2.30;99.90
17053;DHT22;8643;48.824;11.422;2022-12-07T02:04:51;2.40;99.90
17053;DHT22;8643;48.824;11.422;2022-12-07T02:07:21;2.40;99.90
17053;DHT22;8643;48.824;11.422;2022-12-07T02:12:22;2.40;99.90
17053;DHT22;8643;48.824;11.422;2022-12-07T02:14:52;2.30;99.90
17053;DHT22;8643;48.824;11.422;2022-12-07T02:17:26;2.30;99.90
17053;DHT22;8643;48.824;11.422;2022-12-07T02:20:17;2.20;99.90
17053;DHT22;8643;48.824;11.422;2022-12-07T02:23:21;2.10;99.90
17053;DHT22;8643;48.824;11.422;2022-12-07T02:26:23;2.10;99.90
17053;DHT22;8643;48.824;11.422;2022-12-07T02:29:26;2.30;99.90
17053;DHT22;8643;48.824;11.422;2022-12-07T02:32:06;2.20;99.90
17053;DHT22;8643;48.824;11.422;2022-12-07T02:34:47;2.10;99.90
17053;DHT22;8643;48.824;11.422;2022-12-07T02:37:25;2.20;99.90
17053;DHT22;8643;48.824;11.422;2022-12-07T02:40:05;2.20;99.90
17053;DHT22;8643;48.824;11.422;2022-12-07T02:42:43;2.30;99.90
17053;DHT22;8643;48.824;11.422;2022-12-07T02:45:18;2.30;99.90
17053;DHT22;8643;48.824;11.422;2022-12-07T02:47:51;2.30;99.90
17053;DHT22;8643;48.824;11.422;2022-12-07T02:50:26;2.30;99.90
17053;DHT22;8643;48.824;11.422;2022-12-07T02:52:54;2.30;99.90
17053;DHT22;8643;48.824;11.422;2022-12-07T02:55:28;2.30;99.90
17053;DHT22;8643;48.824;11.422;2022-12-07T02:58:10;2.40;99.90
17053;DHT22;8643;48.824;11.422;2022-12-07T03:03:35;2.20;99.90
17053;DHT22;8643;48.824;11.422;2022-12-07T03:06:12;2.10;99.90
17053;DHT22;8643;48.824;11.422;2022-12-07T03:08:53;2.10;99.90
17053;DHT22;8643;48.824;11.422;2022-12-07T03:11:29;2.00;99.90
17053;DHT22;8643;48.824;11.422;2022-12-07T03:14:13;2.10;99.90
17053;DHT22;8643;48.824;11.422;2022-12-07T03:16:50;2.20;99.90
17053;DHT22;8643;48.824;11.422;2022-12-07T03:19:24;2.20;99.90
17053;DHT22;8643;48.824;11.422;2022-12-07T03:21:58;2.20;99.90
17053;DHT22;8643;48.824;11.422;2022-12-07T03:24:33;2.30;99.90
17053;DHT22;8643;48.824;11.422;2022-12-07T03:29:40;2.20;99.90
17053;DHT22;8643;48.824;11.422;2022-12-07T03:32:16;2.20;99.90
17053;DHT22;8643;48.824;11.422;2022-12-07T03:34:57;2.20;99.90
17053;DHT22;8643;48.824;11.422;2022-12-07T03:37:33;2.20;99.90
17053;DHT22;8643;48.824;11.422;2022-12-07T03:40:10;2.30;99.90
17053;DHT22;8643;48.824;11.422;2022-12-07T03:42:44;1.00;99.90
17053;DHT22;8643;48.824;11.422;2022-12-07T03:45:13;2.30;99.90
17053;DHT22;8643;48.824;11.422;2022-12-07T03:47:49;2.20;99.90
17053;DHT22;8643;48.824;11.422;2022-12-07T03:50:32;2.20;99.90
17053;DHT22;8643;48.824;11.422;2022-12-07T03:53:12;2.20;99.90
17053;DHT22;8643;48.824;11.422;2022-12-07T03:55:46;2.20;99.90
17053;DHT22;8643;48.824;11.422;2022-12-07T03:58:18;2.20;99.90
17053;DHT22;8643;48.824;11.422;2022-12-07T04:00:49;2.30;99.90
17053;DHT22;8643;48.824;11.422;2022-12-07T04:03:20;2.30;99.90
17053;DHT22;8643;48.824;11.422;2022-12-07T04:05:48;2.30;99.90
17053;DHT22;8643;48.824;11.422;2022-12-07T04:08:17;2.30;99.90
17053;DHT22;8643;48.824;11.422;2022-12-07T04:10:46;1.30;99.90
17053;DHT22;8643;48.824;11.422;2022-12-07T04:20:42;2.00;99.90
17053;DHT22;8643;48.824;11.422;2022-12-07T04:25:39;2.20;99.90
17053;DHT22;8643;48.824;11.422;2022-12-07T04:30:37;2.00;99.90
17053;DHT22;8643;48.824;11.422;2022-12-07T04:33:05;1.90;99.90
17053;DHT22;8643;48.824;11.422;2022-12-07T04:35:35;1.70;99.90
17053;DHT22;8643;48.824;11.422;2022-12-07T04:38:05;1.80;99.90
17053;DHT22;8643;48.824;11.422;2022-12-07T04:40:33;1.70;99.90
17053;DHT22;8643;48.824;11.422;2022-12-07T04:48:00;1.40;99.90
17053;DHT22;8643;48.824;11.422;2022-12-07T04:50:28;1.40;99.90
17053;DHT22;8643;48.824;11.422;2022-12-07T04:52:56;2.50;99.90
17053;DHT22;8643;48.824;11.422;2022-12-07T04:55:26;1.30;99.90
17053;DHT22;8643;48.824;11.422;2022-12-07T04:57:54;1.20;99.90
17053;DHT22;8643;48.824;11.422;2022-12-07T05:02:51;1.10;99.90
17053;DHT22;8643;48.824;11.422;2022-12-07T05:05:20;1.10;99.90
17053;DHT22;8643;48.824;11.422;2022-12-07T05:07:48;1.00;99.90
17053;DHT22;8643;48.824;11.422;2022-12-07T05:12:47;2.90;99.90
17053;DHT22;8643;48.824;11.422;2022-12-07T05:15:16;0.80;99.90
17053;DHT22;8643;48.824;11.422;2022-12-07T05:17:44;0.70;99.90
17053;DHT22;8643;48.824;11.422;2022-12-07T05:20:13;0.50;99.90
17053;DHT22;8643;48.824;11.422;2022-12-07T05:25:10;0.40;99.90
17053;DHT22;8643;48.824;11.422;2022-12-07T05:30:09;0.30;99.90
17053;DHT22;8643;48.824;11.422;2022-12-07T05:32:38;0.30;99.90
17053;DHT22;8643;48.824;11.422;2022-12-07T05:35:07;0.30;99.90
17053;DHT22;8643;48.824;11.422;2022-12-07T05:42:35;0.20;99.90
17053;DHT22;8643;48.824;11.422;2022-12-07T05:47:33;0.20;99.90
17053;DHT22;8643;48.824;11.422;2022-12-07T05:50:02;0.10;99.90
17053;DHT22;8643;48.824;11.422;2022-12-07T05:52:32;0.00;99.90
17053;DHT22;8643;48.824;11.422;2022-12-07T05:57:29;-0.30;99.90
17053;DHT22;8643;48.824;11.422;2022-12-07T05:59:57;-0.40;99.90
17053;DHT22;8643;48.824;11.422;2022-12-07T06:02:25;-0.60;99.90
17053;DHT22;8643;48.824;11.422;2022-12-07T06:04:55;-0.60;99.90
17053;DHT22;8643;48.824;11.422;2022-12-07T06:09:52;-0.80;99.90
17053;DHT22;8643;48.824;11.422;2022-12-07T06:12:20;-0.90;99.90
17053;DHT22;8643;48.824;11.422;2022-12-07T06:15:05;-0.90;99.90
17053;DHT22;8643;48.824;11.422;2022-12-07T06:17:34;-0.80;99.90
17053;DHT22;8643;48.824;11.422;2022-12-07T06:20:05;-1.00;99.90
17053;DHT22;8643;48.824;11.422;2022-12-07T06:25:04;-1.00;99.90
17053;DHT22;8643;48.824;11.422;2022-12-07T06:27:34;-1.00;99.90
17053;DHT22;8643;48.824;11.422;2022-12-07T06:30:04;-0.20;99.90
17053;DHT22;8643;48.824;11.422;2022-12-07T06:35:07;-1.10;99.90
17053;DHT22;8643;48.824;11.422;2022-12-07T06:40:05;-1.00;99.90
17053;DHT22;8643;48.824;11.422;2022-12-07T06:42:35;-0.80;99.90
17053;DHT22;8643;48.824;11.422;2022-12-07T06:45:04;-0.70;99.90
17053;DHT22;8643;48.824;11.422;2022-12-07T06:47:32;-0.60;99.90
17053;DHT22;8643;48.824;11.422;2022-12-07T06:50:11;-0.60;99.90
17053;DHT22;8643;48.824;11.422;2022-12-07T06:52:40;1.00;99.90
17053;DHT22;8643;48.824;11.422;2022-12-07T06:55:08;-0.60;99.90
17053;DHT22;8643;48.824;11.422;2022-12-07T07:00:06;-0.60;99.90
17053;DHT22;8643;48.824;11.422;2022-12-07T07:07:34;-0.40;99.90
17053;DHT22;8643;48.824;11.422;2022-12-07T07:10:23;-0.40;99.90
17053;DHT22;8643;48.824;11.422;2022-12-07T07:12:51;-0.30;99.90
17053;DHT22;8643;48.824;11.422;2022-12-07T07:15:23;-0.20;99.90
17053;DHT22;8643;48.824;11.422;2022-12-07T07:20:20;0.10;99.90
17053;DHT22;8643;48.824;11.422;2022-12-07T07:22:53;3.80;99.90
17053;DHT22;8643;48.824;11.422;2022-12-07T07:30:20;0.30;99.90
17053;DHT22;8643;48.824;11.422;2022-12-07T07:35:17;0.40;99.90
17053;DHT22;8643;48.824;11.422;2022-12-07T07:40:16;0.60;99.90
17053;DHT22;8643;48.824;11.422;2022-12-07T07:42:47;0.70;99.90
17053;DHT22;8643;48.824;11.422;2022-12-07T07:47:45;0.80;99.90
17053;DHT22;8643;48.824;11.422;2022-12-07T07:50:14;0.80;99.90
17053;DHT22;8643;48.824;11.422;2022-12-07T07:55:12;2.60;99.90
17053;DHT22;8643;48.824;11.422;2022-12-07T07:57:42;1.00;99.90
17053;DHT22;8643;48.824;11.422;2022-12-07T08:00:17;1.20;99.90
17053;DHT22;8643;48.824;11.422;2022-12-07T08:05:15;2.00;99.90
17053;DHT22;8643;48.824;11.422;2022-12-07T08:07:44;2.10;99.90
17053;DHT22;8643;48.824;11.422;2022-12-07T08:10:13;3.30;99.90
17053;DHT22;8643;48.824;11.422;2022-12-07T08:12:43;2.10;99.90
17053;DHT22;8643;48.824;11.422;2022-12-07T08:15:30;2.20;99.90
17053;DHT22;8643;48.824;11.422;2022-12-07T08:20:30;2.10;99.90
17053;DHT22;8643;48.824;11.422;2022-12-07T08:25:28;2.00;99.90
17053;DHT22;8643;48.824;11.422;2022-12-07T08:27:59;1.80;99.90
17053;DHT22;8643;48.824;11.422;2022-12-07T08:30:29;1.80;99.90
17053;DHT22;8643;48.824;11.422;2022-12-07T08:32:57;1.80;99.90
17053;DHT22;8643;48.824;11.422;2022-12-07T08:37:55;1.90;99.90
17053;DHT22;8643;48.824;11.422;2022-12-07T08:42:53;1.90;99.90
17053;DHT22;8643;48.824;11.422;2022-12-07T08:45:23;1.90;99.90
17053;DHT22;8643;48.824;11.422;2022-12-07T08:47:56;1.90;99.90
17053;DHT22;8643;48.824;11.422;2022-12-07T08:53:00;1.90;99.90
17053;DHT22;8643;48.824;11.422;2022-12-07T08:55:29;1.90;99.90
17053;DHT22;8643;48.824;11.422;2022-12-07T08:57:58;1.80;99.90
17053;DHT22;8643;48.824;11.422;2022-12-07T09:00:29;1.80;99.90
17053;DHT22;8643;48.824;11.422;2022-12-07T09:02:57;1.80;99.90
17053;DHT22;8643;48.824;11.422;2022-12-07T09:05:26;1.90;99.90
17053;DHT22;8643;48.824;11.422;2022-12-07T09:12:56;2.20;99.90
17053;DHT22;8643;48.824;11.422;2022-12-07T09:17:58;2.30;99.90
17053;DHT22;8643;48.824;11.422;2022-12-07T09:20:26;2.90;99.90
17053;DHT22;8643;48.824;11.422;2022-12-07T09:25:23;2.40;99.90
17053;DHT22;8643;48.824;11.422;2022-12-07T09:27:55;2.50;99.90
17053;DHT22;8643;48.824;11.422;2022-12-07T09:30:25;2.60;99.90
17053;DHT22;8643;48.824;11.422;2022-12-07T09:32:55;2.70;99.90
17053;DHT22;8643;48.824;11.422;2022-12-07T09:35:25;3.00;99.90
17053;DHT22;8643;48.824;11.422;2022-12-07T09:40:23;2.80;99.90
17053;DHT22;8643;48.824;11.422;2022-12-07T09:45:24;2.60;99.90
17053;DHT22;8643;48.824;11.422;2022-12-07T09:48:00;2.90;99.90
17053;DHT22;8643;48.824;11.422;2022-12-07T09:53:09;3.00;99.90
17053;DHT22;8643;48.824;11.422;2022-12-07T09:58:19;3.10;99.90
17053;DHT22;8643;48.824;11.422;2022-12-07T10:00:50;3.10;99.90
17053;DHT22;8643;48.824;11.422;2022-12-07T10:03:22;3.20;99.90
17053;DHT22;8643;48.824;11.422;2022-12-07T10:08:20;3.20;99.90
17053;DHT22;8643;48.824;11.422;2022-12-07T10:10:51;3.20;99.90
17053;DHT22;8643;48.824;11.422;2022-12-07T10:18:36;3.30;99.90
17053;DHT22;8643;48.824;11.422;2022-12-07T10:23:41;3.30;99.90
17053;DHT22;8643;48.824;11.422;2022-12-07T10:26:29;3.30;99.90
17053;DHT22;8643;48.824;11.422;2022-12-07T10:29:01;3.30;99.90
17053;DHT22;8643;48.824;11.422;2022-12-07T10:31:42;3.40;99.90
17053;DHT22;8643;48.824;11.422;2022-12-07T10:34:22;4.60;99.90
17053;DHT22;8643;48.824;11.422;2022-12-07T10:36:52;3.40;99.90
17053;DHT22;8643;48.824;11.422;2022-12-07T10:39:22;3.30;99.90
17053;DHT22;8643;48.824;11.422;2022-12-07T10:41:55;3.40;99.90
17053;DHT22;8643;48.824;11.422;2022-12-07T10:44:27;3.40;99.90
17053;DHT22;8643;48.824;11.422;2022-12-07T10:47:05;3.50;99.90
17053;DHT22;8643;48.824;11.422;2022-12-07T10:50:14;3.40;99.90
17053;DHT22;8643;48.824;11.422;2022-12-07T10:53:12;3.50;99.90
17053;DHT22;8643;48.824;11.422;2022-12-07T10:56:05;3.50;99.90
17053;DHT22;8643;48.824;11.422;2022-12-07T10:58:56;3.60;99.90
17053;DHT22;8643;48.824;11.422;2022-12-07T11:01:43;3.60;99.90
17053;DHT22;8643;48.824;11.422;2022-12-07T11:04:24;3.70;99.90
17053;DHT22;8643;48.824;11.422;2022-12-07T11:09:52;3.80;99.90
17053;DHT22;8643;48.824;11.422;2022-12-07T11:12:47;3.80;99.90
17053;DHT22;8643;48.824;11.422;2022-12-07T11:15:51;3.80;99.90
17053;DHT22;8643;48.824;11.422;2022-12-07T11:21:09;3.80;99.90
17053;DHT22;8643;48.824;11.422;2022-12-07T11:23:51;3.90;99.90
17053;DHT22;8643;48.824;11.422;2022-12-07T11:26:34;3.90;99.90
17053;DHT22;8643;48.824;11.422;2022-12-07T11:32:45;3.90;99.90
17053;DHT22;8643;48.824;11.422;2022-12-07T11:35:29;4.30;99.90
17053;DHT22;8643;48.824;11.422;2022-12-07T11:38:12;3.90;99.90
17053;DHT22;8643;48.824;11.422;2022-12-07T11:43:24;3.90;99.90
17053;DHT22;8643;48.824;11.422;2022-12-07T11:45:59;3.90;99.90
17053;DHT22;8643;48.824;11.422;2022-12-07T11:48:34;3.90;99.90
17053;DHT22;8643;48.824;11.422;2022-12-07T11:51:09;3.90;99.90
17053;DHT22;8643;48.824;11.422;2022-12-07T11:53:43;3.90;99.90
17053;DHT22;8643;48.824;11.422;2022-12-07T11:56:18;3.90;99.90
17053;DHT22;8643;48.824;11.422;2022-12-07T11:58:52;3.90;99.90
17053;DHT22;8643;48.824;11.422;2022-12-07T12:01:31;3.90;99.90
17053;DHT22;8643;48.824;11.422;2022-12-07T12:04:16;4.00;99.90
17053;DHT22;8643;48.824;11.422;2022-12-07T12:06:53;3.90;99.90
17053;DHT22;8643;48.824;11.422;2022-12-07T12:09:26;3.80;99.90
17053;DHT22;8643;48.824;11.422;2022-12-07T12:12:24;3.90;99.90
17053;DHT22;8643;48.824;11.422;2022-12-07T12:15:39;4.00;99.90
17053;DHT22;8643;48.824;11.422;2022-12-07T12:18:42;4.00;99.90
17053;DHT22;8643;48.824;11.422;2022-12-07T12:26:37;4.00;99.90
17053;DHT22;8643;48.824;11.422;2022-12-07T12:29:20;4.10;99.90
17053;DHT22;8643;48.824;11.422;2022-12-07T12:32:06;4.10;99.90
17053;DHT22;8643;48.824;11.422;2022-12-07T12:34:58;4.20;99.90
17053;DHT22;8643;48.824;11.422;2022-12-07T12:37:43;4.20;99.90
17053;DHT22;8643;48.824;11.422;2022-12-07T12:43:40;4.20;99.90
17053;DHT22;8643;48.824;11.422;2022-12-07T12:46:51;4.30;99.90
17053;DHT22;8643;48.824;11.422;2022-12-07T12:50:10;4.30;99.90
17053;DHT22;8643;48.824;11.422;2022-12-07T12:53:12;4.40;99.90
17053;DHT22;8643;48.824;11.422;2022-12-07T12:56:19;4.30;99.90
17053;DHT22;8643;48.824;11.422;2022-12-07T12:59:24;4.40;99.90
17053;DHT22;8643;48.824;11.422;2022-12-07T13:02:08;4.30;99.90
17053;DHT22;8643;48.824;11.422;2022-12-07T13:04:52;4.30;99.90
17053;DHT22;8643;48.824;11.422;2022-12-07T13:10:39;4.30;99.90
17053;DHT22;8643;48.824;11.422;2022-12-07T13:13:34;4.30;99.90
17053;DHT22;8643;48.824;11.422;2022-12-07T13:16:39;4.30;99.90
17053;DHT22;8643;48.824;11.422;2022-12-07T13:28:16;4.20;99.90
17053;DHT22;8643;48.824;11.422;2022-12-07T13:30:51;4.20;99.90
17053;DHT22;8643;48.824;11.422;2022-12-07T13:33:28;4.10;99.90
17053;DHT22;8643;48.824;11.422;2022-12-07T13:35:58;4.10;99.90
17053;DHT22;8643;48.824;11.422;2022-12-07T13:38:30;4.20;99.90
17053;DHT22;8643;48.824;11.422;2022-12-07T13:41:03;4.10;99.90
17053;DHT22;8643;48.824;11.422;2022-12-07T13:43:46;4.20;99.90
17053;DHT22;8643;48.824;11.422;2022-12-07T13:46:20;4.20;99.90
17053;DHT22;8643;48.824;11.422;2022-12-07T13:48:53;4.10;99.90
17053;DHT22;8643;48.824;11.422;2022-12-07T13:51:26;4.30;99.90
17053;DHT22;8643;48.824;11.422;2022-12-07T13:54:00;4.10;99.90
17053;DHT22;8643;48.824;11.422;2022-12-07T13:56:33;4.10;99.90
17053;DHT22;8643;48.824;11.422;2022-12-07T13:59:05;4.10;99.90
17053;DHT22;8643;48.824;11.422;2022-12-07T14:09:57;4.20;99.90
17053;DHT22;8643;48.824;11.422;2022-12-07T14:14:58;4.20;99.90
17053;DHT22;8643;48.824;11.422;2022-12-07T14:19:58;4.20;99.90
17053;DHT22;8643;48.824;11.422;2022-12-07T14:22:31;3.70;99.90
17053;DHT22;8643;48.824;11.422;2022-12-07T14:30:26;4.00;99.90
17053;DHT22;8643;48.824;11.422;2022-12-07T14:32:59;4.10;99.90
17053;DHT22;8643;48.824;11.422;2022-12-07T14:35:30;4.10;99.90
17053;DHT22;8643;48.824;11.422;2022-12-07T14:40:30;4.00;99.90
17053;DHT22;8643;48.824;11.422;2022-12-07T14:43:02;4.00;99.90
17053;DHT22;8643;48.824;11.422;2022-12-07T14:45:33;3.90;99.90
17053;DHT22;8643;48.824;11.422;2022-12-07T14:48:02;3.90;99.90
17053;DHT22;8643;48.824;11.422;2022-12-07T14:50:53;4.00;99.90
17053;DHT22;8643;48.824;11.422;2022-12-07T14:53:45;4.00;99.90
17053;DHT22;8643;48.824;11.422;2022-12-07T14:56:25;4.00;99.90
17053;DHT22;8643;48.824;11.422;2022-12-07T14:58:54;4.00;99.90
17053;DHT22;8643;48.824;11.422;2022-12-07T15:08:49;3.90;99.90
17053;DHT22;8643;48.824;11.422;2022-12-07T15:11:18;4.00;99.90
17053;DHT22;8643;48.824;11.422;2022-12-07T15:13:47;3.90;99.90
17053;DHT22;8643;48.824;11.422;2022-12-07T15:16:34;3.90;99.90
17053;DHT22;8643;48.824;11.422;2022-12-07T15:19:24;3.80;99.90
17053;DHT22;8643;48.824;11.422;2022-12-07T15:24:27;3.80;99.90
17053;DHT22;8643;48.824;11.422;2022-12-07T15:26:55;3.80;99.90
17053;DHT22;8643;48.824;11.422;2022-12-07T15:29:25;3.80;99.90
17053;DHT22;8643;48.824;11.422;2022-12-07T15:31:54;3.80;99.90
17053;DHT22;8643;48.824;11.422;2022-12-07T15:34:25;3.70;99.90
17053;DHT22;8643;48.824;11.422;2022-12-07T15:37:04;3.80;99.90
17053;DHT22;8643;48.824;11.422;2022-12-07T15:39:33;3.70;99.90
17053;DHT22;8643;48.824;11.422;2022-12-07T15:49:48;3.70;99.90
17053;DHT22;8643;48.824;11.422;2022-12-07T15:54:45;3.50;99.90
17053;DHT22;8643;48.824;11.422;2022-12-07T15:57:15;3.50;99.90
17053;DHT22;8643;48.824;11.422;2022-12-07T15:59:52;3.60;99.90
17053;DHT22;8643;48.824;11.422;2022-12-07T16:02:21;3.60;99.90
17053;DHT22;8643;48.824;11.422;2022-12-07T16:07:19;3.50;99.90
17053;DHT22;8643;48.824;11.422;2022-12-07T16:12:17;3.40;99.90
17053;DHT22;8643;48.824;11.422;2022-12-07T16:17:15;3.50;99.90
17053;DHT22;8643;48.824;11.422;2022-12-07T16:19:44;3.50;99.90
17053;DHT22;8643;48.824;11.422;2022-12-07T16:22:12;4.20;99.90
17053;DHT22;8643;48.824;11.422;2022-12-07T16:24:41;3.50;99.90
17053;DHT22;8643;48.824;11.422;2022-12-07T16:27:09;3.40;99.90
17053;DHT22;8643;48.824;11.422;2022-12-07T16:29:37;3.30;99.90
17053;DHT22;8643;48.824;11.422;2022-12-07T16:32:06;4.60;99.90
17053;DHT22;8643;48.824;11.422;2022-12-07T16:34:36;3.30;99.90
17053;DHT22;8643;48.824;11.422;2022-12-07T16:37:04;3.30;99.90
17053;DHT22;8643;48.824;11.422;2022-12-07T16:39:33;3.20;99.90
17053;DHT22;8643;48.824;11.422;2022-12-07T16:42:02;3.30;99.90
17053;DHT22;8643;48.824;11.422;2022-12-07T16:44:30;3.30;99.90
17053;DHT22;8643;48.824;11.422;2022-12-07T16:46:59;3.30;99.90
17053;DHT22;8643;48.824;11.422;2022-12-07T16:54:48;3.30;99.90
17053;DHT22;8643;48.824;11.422;2022-12-07T16:57:17;3.20;99.90
17053;DHT22;8643;48.824;11.422;2022-12-07T16:59:50;3.10;99.90
17053;DHT22;8643;48.824;11.422;2022-12-07T17:02:20;3.10;99.90
17053;DHT22;8643;48.824;11.422;2022-12-07T17:04:48;3.00;99.90
17053;DHT22;8643;48.824;11.422;2022-12-07T17:07:18;3.00;99.90
17053;DHT22;8643;48.824;11.422;2022-12-07T17:12:15;3.00;99.90
17053;DHT22;8643;48.824;11.422;2022-12-07T17:14:45;3.00;99.90
17053;DHT22;8643;48.824;11.422;2022-12-07T17:20:00;3.20;99.90
17053;DHT22;8643;48.824;11.422;2022-12-07T17:22:30;3.30;99.90
17053;DHT22;8643;48.824;11.422;2022-12-07T17:27:28;3.20;99.90
17053;DHT22;8643;48.824;11.422;2022-12-07T17:39:53;3.10;99.90
17053;DHT22;8643;48.824;11.422;2022-12-07T17:50:07;3.10;99.90
17053;DHT22;8643;48.824;11.422;2022-12-07T17:52:37;3.10;99.90
17053;DHT22;8643;48.824;11.422;2022-12-07T17:55:25;3.10;99.90
17053;DHT22;8643;48.824;11.422;2022-12-07T17:57:53;3.10;99.90
17053;DHT22;8643;48.824;11.422;2022-12-07T18:00:22;3.10;99.90
17053;DHT22;8643;48.824;11.422;2022-12-07T18:05:19;3.00;99.90
17053;DHT22;8643;48.824;11.422;2022-12-07T18:07:47;2.90;99.90
17053;DHT22;8643;48.824;11.422;2022-12-07T18:10:16;2.80;99.90
17053;DHT22;8643;48.824;11.422;2022-12-07T18:12:46;2.80;99.90
17053;DHT22;8643;48.824;11.422;2022-12-07T18:17:46;2.80;99.90
17053;DHT22;8643;48.824;11.422;2022-12-07T18:20:15;2.80;99.90
17053;DHT22;8643;48.824;11.422;2022-12-07T18:22:43;2.80;99.90
17053;DHT22;8643;48.824;11.422;2022-12-07T18:35:09;2.80;99.90
17053;DHT22;8643;48.824;11.422;2022-12-07T18:37:37;2.80;99.90
17053;DHT22;8643;48.824;11.422;2022-12-07T18:40:06;4.50;99.90
17053;DHT22;8643;48.824;11.422;2022-12-07T18:50:05;2.80;99.90
17053;DHT22;8643;48.824;11.422;2022-12-07T18:52:35;2.80;99.90
17053;DHT22;8643;48.824;11.422;2022-12-07T18:55:04;2.70;99.90
17053;DHT22;8643;48.824;11.422;2022-12-07T19:00:03;2.60;99.90
17053;DHT22;8643;48.824;11.422;2022-12-07T19:05:03;2.60;99.90
17053;DHT22;8643;48.824;11.422;2022-12-07T19:07:32;2.80;99.90
17053;DHT22;8643;48.824;11.422;2022-12-07T19:12:30;2.70;99.90
17053;DHT22;8643;48.824;11.422;2022-12-07T19:22:26;2.60;99.90
17053;DHT22;8643;48.824;11.422;2022-12-07T19:24:55;2.60;99.90
17053;DHT22;8643;48.824;11.422;2022-12-07T19:32:21;2.70;99.90
17053;DHT22;8643;48.824;11.422;2022-12-07T19:34:50;2.70;99.90
17053;DHT22;8643;48.824;11.422;2022-12-07T19:37:18;2.70;99.90
17053;DHT22;8643;48.824;11.422;2022-12-07T19:39:48;2.80;99.90
17053;DHT22;8643;48.824;11.422;2022-12-07T19:44:46;2.80;99.90
17053;DHT22;8643;48.824;11.422;2022-12-07T19:47:15;2.80;99.90
17053;DHT22;8643;48.824;11.422;2022-12-07T19:49:44;2.80;99.90
17053;DHT22;8643;48.824;11.422;2022-12-07T19:52:13;2.70;99.90
17053;DHT22;8643;48.824;11.422;2022-12-07T19:54:41;2.60;99.90
17053;DHT22;8643;48.824;11.422;2022-12-07T19:57:11;2.50;99.90
17053;DHT22;8643;48.824;11.422;2022-12-07T19:59:42;2.50;99.90
17053;DHT22;8643;48.824;11.422;2022-12-07T20:02:13;2.50;99.90
17053;DHT22;8643;48.824;11.422;2022-12-07T20:04:42;2.50;99.90
17053;DHT22;8643;48.824;11.422;2022-12-07T20:12:10;2.40;99.90
17053;DHT22;8643;48.824;11.422;2022-12-07T20:17:25;2.30;99.90
17053;DHT22;8643;48.824;11.422;2022-12-07T20:19:53;2.30;99.90
17053;DHT22;8643;48.824;11.422;2022-12-07T20:27:20;2.20;99.90
17053;DHT22;8643;48.824;11.422;2022-12-07T20:34:46;2.10;99.90
17053;DHT22;8643;48.824;11.422;2022-12-07T20:37:15;2.10;99.90
17053;DHT22;8643;48.824;11.422;2022-12-07T20:39:43;2.10;99.90
17053;DHT22;8643;48.824;11.422;2022-12-07T20:44:59;2.00;99.90
17053;DHT22;8643;48.824;11.422;2022-12-07T20:47:30;1.90;99.90
17053;DHT22;8643;48.824;11.422;2022-12-07T20:49:58;1.80;99.90
17053;DHT22;8643;48.824;11.422;2022-12-07T20:52:29;1.80;99.90
17053;DHT22;8643;48.824;11.422;2022-12-07T20:59:55;1.70;99.90
17053;DHT22;8643;48.824;11.422;2022-12-07T21:02:25;1.70;99.90
17053;DHT22;8643;48.824;11.422;2022-12-07T21:09:51;1.70;99.90
17053;DHT22;8643;48.824;11.422;2022-12-07T21:12:20;1.30;99.90
17053;DHT22;8643;48.824;11.422;2022-12-07T21:17:17;1.50;99.90
17053;DHT22;8643;48.824;11.422;2022-12-07T21:19:47;1.60;99.90
17053;DHT22;8643;48.824;11.422;2022-12-07T21:22:15;1.60;99.90
17053;DHT22;8643;48.824;11.422;2022-12-07T21:24:43;1.50;99.90
17053;DHT22;8643;48.824;11.422;2022-12-07T21:29:40;2.60;99.90
17053;DHT22;8643;48.824;11.422;2022-12-07T21:32:12;1.40;99.90
17053;DHT22;8643;48.824;11.422;2022-12-07T21:34:41;1.50;99.90
17053;DHT22;8643;48.824;11.422;2022-12-07T21:37:11;0.90;99.90
17053;DHT22;8643;48.824;11.422;2022-12-07T21:39:39;1.50;99.90
17053;DHT22;8643;48.824;11.422;2022-12-07T21:44:36;1.40;99.90
17053;DHT22;8643;48.824;11.422;2022-12-07T21:49:33;0.60;99.90
17053;DHT22;8643;48.824;11.422;2022-12-07T21:54:33;1.40;99.90
17053;DHT22;8643;48.824;11.422;2022-12-07T21:57:01;1.40;99.90
17053;DHT22;8643;48.824;11.422;2022-12-07T21:59:29;1.30;99.90
17053;DHT22;8643;48.824;11.422;2022-12-07T22:04:27;2.00;99.90
17053;DHT22;8643;48.824;11.422;2022-12-07T22:09:25;1.30;99.90
17053;DHT22;8643;48.824;11.422;2022-12-07T22:11:57;1.20;99.90
17053;DHT22;8643;48.824;11.422;2022-12-07T22:14:25;1.20;99.90